Archival Weather

Tokyo Intl

Tokyo, Japan (RJTT)

Report from: Saturday, April 1, 2023 2:00 AM JST
Current time: Friday, July 19, 2024 11:15 AM JST

Current weather – Weather history – Daily summaries
Weather forecast

Temperature12.0°C (53.6°F)
Dew point9.0°C (48.2°F)
Winds 5 kts (2.6 m/s, 5.8 mph) West (280°)
Clouds Sky clear
Altimeter29.97 in.Hg (1015 mB)
Relative humidity82 %
Density altitude-253 ft. (-77 m)
Remarks Ceiling and visibility OK
No significant changes expected in the next two hours
Flight conditions Visual Meteorological Conditions
Raw dataRJTT 311700Z 28005KT CAVOK 12/09 Q1015 NOSIG
An error has occurred. This application may no longer respond until reloaded. Reload 🗙